Terminal Aerodrome Forecast
Issued by NWS

Home | Current Version | Previous Version | Text Only | Print | Product List | Glossary On
Versions: 1 2 3 4 5 6 7 8 9 10 11 12 13
000
FTUS44 KBMX 281100
TAFTCL
TAF
KTCL 281135Z 2812/2912 27007KT P6SM VCSH BKN025
     FM281500 32012G18KT P6SM SCT050
     FM290100 34005KT P6SM SKC=

USA.gov is the U.S. government's official web portal to all federal, state and local government web resources and services.